createdAt,value
2022-12-18T00:01:32.239Z,13.30
2022-12-18T00:04:03.445Z,13.07
2022-12-18T00:06:33.553Z,13.48
2022-12-18T00:09:02.125Z,6.35
2022-12-18T00:11:31.751Z,11.10
2022-12-18T00:14:01.027Z,8.45
2022-12-18T00:16:30.892Z,13.38
2022-12-18T00:19:01.864Z,11.93
2022-12-18T00:21:30.451Z,10.02
2022-12-18T00:23:58.948Z,6.55
2022-12-18T00:26:28.567Z,7.70
2022-12-18T00:29:01.257Z,9.13
2022-12-18T00:31:32.253Z,8.32
2022-12-18T00:34:03.580Z,13.40
2022-12-18T00:36:32.838Z,9.27
2022-12-18T00:39:02.174Z,12.65
2022-12-18T00:41:48.087Z,10.05
2022-12-18T00:44:18.600Z,5.68
2022-12-18T00:46:47.772Z,10.25
2022-12-18T00:49:17.767Z,19.45
2022-12-18T00:51:45.661Z,11.27
2022-12-18T00:54:13.475Z,6.10
2022-12-18T00:56:49.738Z,4.82
2022-12-18T00:59:19.285Z,8.45
2022-12-18T01:01:47.817Z,9.05
2022-12-18T01:04:17.189Z,6.10
2022-12-18T01:06:46.799Z,7.55
2022-12-18T01:09:14.695Z,4.10
2022-12-18T01:11:42.429Z,7.88
2022-12-18T01:14:12.347Z,6.78
2022-12-18T01:16:40.231Z,6.35
2022-12-18T01:19:08.295Z,2.53
2022-12-18T01:21:37.414Z,2.00
2022-12-18T01:24:06.813Z,5.65
2022-12-18T01:26:35.006Z,1.83
2022-12-18T01:29:02.770Z,10.88
2022-12-18T01:31:33.161Z,9.57
2022-12-18T01:34:04.481Z,3.55
2022-12-18T01:36:34.157Z,7.00
2022-12-18T01:39:05.889Z,10.25
2022-12-18T01:41:48.831Z,8.32
2022-12-18T01:45:02.477Z,3.95
2022-12-18T01:47:35.298Z,9.57
2022-12-18T01:50:07.312Z,10.85
2022-12-18T01:52:35.620Z,8.25
2022-12-18T01:55:07.923Z,8.98
2022-12-18T01:57:36.367Z,17.23
2022-12-18T02:00:08.341Z,8.70
2022-12-18T02:02:42.890Z,10.90
2022-12-18T02:05:13.511Z,10.32
2022-12-18T02:07:53.542Z,7.55
2022-12-18T02:10:29.015Z,9.30
2022-12-18T02:13:07.909Z,7.05
2022-12-18T02:15:42.676Z,2.45
2022-12-18T02:18:14.955Z,2.17
2022-12-18T02:20:47.699Z,2.65
2022-12-18T02:23:32.152Z,10.77
2022-12-18T02:26:12.910Z,7.28
2022-12-18T02:28:46.119Z,8.50
2022-12-18T02:31:17.817Z,7.55
2022-12-18T02:33:47.795Z,9.68
2022-12-18T02:36:18.514Z,7.10
2022-12-18T02:38:48.520Z,10.48
2022-12-18T02:41:19.893Z,5.07
2022-12-18T02:43:51.700Z,7.00
2022-12-18T02:46:29.346Z,7.68
2022-12-18T02:49:05.073Z,8.43
2022-12-18T02:51:42.457Z,5.70
2022-12-18T02:54:20.675Z,4.95
2022-12-18T02:56:53.728Z,7.32
2022-12-18T02:59:31.048Z,5.88
2022-12-18T03:02:03.053Z,5.53
2022-12-18T03:04:40.254Z,13.07
2022-12-18T03:07:14.929Z,9.43
2022-12-18T03:09:49.491Z,12.75
2022-12-18T03:12:25.287Z,9.40
2022-12-18T03:15:01.944Z,8.48
2022-12-18T03:17:33.908Z,5.88
2022-12-18T03:20:07.915Z,6.97
2022-12-18T03:22:39.457Z,5.18
2022-12-18T03:25:11.722Z,3.67
2022-12-18T03:27:47.003Z,5.00
2022-12-18T03:30:17.776Z,4.35
2022-12-18T03:32:50.879Z,5.43
2022-12-18T03:35:25.091Z,8.25
2022-12-18T03:37:52.949Z,5.43
2022-12-18T03:40:26.541Z,14.57
2022-12-18T03:43:01.430Z,8.55
2022-12-18T03:45:36.662Z,4.18
2022-12-18T03:48:11.557Z,7.95
2022-12-18T03:50:49.031Z,8.23
2022-12-18T03:53:28.054Z,15.88
2022-12-18T03:55:57.321Z,9.63
2022-12-18T03:58:31.733Z,9.73
2022-12-18T04:01:17.420Z,9.23
2022-12-18T04:03:48.199Z,7.13
2022-12-18T04:06:17.385Z,6.78
2022-12-18T04:08:47.826Z,7.60
2022-12-18T04:11:18.997Z,9.68
2022-12-18T04:13:50.053Z,6.75
2022-12-18T04:16:23.798Z,8.18
2022-12-18T04:18:55.444Z,8.63
2022-12-18T04:21:25.523Z,6.50
2022-12-18T04:23:54.174Z,7.00
2022-12-18T04:26:24.434Z,7.82
2022-12-18T04:29:14.464Z,8.95
2022-12-18T04:31:42.260Z,10.20
2022-12-18T04:34:13.638Z,8.23
2022-12-18T04:36:48.953Z,3.67
2022-12-18T04:39:17.334Z,3.05
2022-12-18T04:41:45.642Z,2.08
2022-12-18T04:44:15.982Z,5.13
2022-12-18T04:46:44.816Z,6.00
2022-12-18T04:49:13.371Z,5.85
2022-12-18T04:51:41.579Z,6.13
2022-12-18T04:54:09.499Z,4.28
2022-12-18T04:56:37.563Z,2.45
2022-12-18T04:59:05.748Z,3.92
2022-12-18T05:01:35.401Z,2.63
2022-12-18T05:04:05.457Z,8.32
2022-12-18T05:06:33.306Z,6.22
2022-12-18T05:09:01.247Z,8.93
2022-12-18T05:11:29.041Z,6.38
2022-12-18T05:13:56.701Z,5.38
2022-12-18T05:16:24.483Z,6.70
2022-12-18T05:18:53.525Z,5.72
2022-12-18T05:21:21.225Z,5.63
2022-12-18T05:23:48.927Z,5.72
2022-12-18T05:26:19.107Z,7.90
2022-12-18T05:28:47.174Z,5.90
2022-12-18T05:31:15.539Z,2.00
2022-12-18T05:33:43.973Z,5.10
2022-12-18T05:36:13.618Z,4.15
2022-12-18T05:38:41.744Z,6.13
2022-12-18T05:41:10.539Z,8.80
2022-12-18T05:43:39.750Z,8.65
2022-12-18T05:46:08.567Z,14.63
2022-12-18T05:48:36.375Z,6.03
2022-12-18T05:51:08.939Z,4.80
2022-12-18T05:53:39.431Z,6.43
2022-12-18T05:56:09.927Z,3.88
2022-12-18T05:58:38.627Z,2.78
2022-12-18T06:01:11.150Z,3.35
2022-12-18T06:03:39.173Z,6.30
2022-12-18T06:06:14.959Z,9.23
2022-12-18T06:08:46.398Z,3.67
2022-12-18T06:11:17.662Z,5.30
2022-12-18T06:13:45.380Z,3.78
2022-12-18T06:16:13.142Z,6.25
2022-12-18T06:18:41.066Z,4.03
2022-12-18T06:21:08.871Z,5.35
2022-12-18T06:23:36.837Z,5.65
2022-12-18T06:26:10.861Z,4.95
2022-12-18T06:28:38.861Z,2.15
2022-12-18T06:31:07.446Z,2.08
2022-12-18T06:33:35.339Z,1.52
2022-12-18T06:36:04.783Z,2.55
2022-12-18T06:38:33.730Z,3.60
2022-12-18T06:41:01.651Z,3.55
2022-12-18T06:43:30.697Z,2.53
2022-12-18T06:46:01.494Z,4.53
2022-12-18T06:48:29.471Z,5.93
2022-12-18T06:50:57.218Z,5.28
2022-12-18T06:53:24.983Z,6.47
2022-12-18T06:55:52.733Z,4.68
2022-12-18T06:58:20.606Z,4.97
2022-12-18T07:00:49.688Z,5.00
2022-12-18T07:03:17.479Z,8.73
2022-12-18T07:05:45.137Z,5.93
2022-12-18T07:08:12.878Z,5.63
2022-12-18T07:10:47.488Z,6.95
2022-12-18T07:13:16.778Z,3.88
2022-12-18T07:15:44.668Z,2.90
2022-12-18T07:18:14.427Z,6.72
2022-12-18T07:20:42.991Z,6.53
2022-12-18T07:23:10.655Z,8.93
2022-12-18T07:25:38.677Z,7.05
2022-12-18T07:28:06.919Z,4.50
2022-12-18T07:30:34.854Z,2.05
2022-12-18T07:33:02.579Z,4.68
2022-12-18T07:35:31.732Z,4.07
2022-12-18T07:37:59.488Z,2.60
2022-12-18T07:40:28.303Z,11.05
2022-12-18T07:42:56.004Z,8.00
2022-12-18T07:45:23.659Z,8.95
2022-12-18T07:47:51.374Z,9.82
2022-12-18T07:50:19.371Z,5.95
2022-12-18T07:52:48.547Z,3.45
2022-12-18T07:55:16.396Z,6.20
2022-12-18T07:57:53.398Z,4.63
2022-12-18T08:00:23.351Z,12.57
2022-12-18T08:02:51.153Z,4.63
2022-12-18T08:05:19.334Z,5.38
2022-12-18T08:07:48.555Z,3.83
2022-12-18T08:10:16.780Z,6.03
2022-12-18T08:12:44.463Z,4.07
2022-12-18T08:15:12.539Z,9.23
2022-12-18T08:17:40.280Z,5.65
2022-12-18T08:20:09.118Z,4.55
2022-12-18T08:22:37.305Z,7.60
2022-12-18T08:25:07.566Z,9.82
2022-12-18T08:27:35.347Z,6.00
2022-12-18T08:30:03.844Z,11.98
2022-12-18T08:32:33.776Z,7.72
2022-12-18T08:35:01.571Z,9.68
2022-12-18T08:37:29.343Z,11.05
2022-12-18T08:39:57.079Z,10.10
2022-12-18T08:42:43.590Z,15.38
2022-12-18T08:45:11.631Z,11.50
2022-12-18T08:47:39.479Z,14.10
2022-12-18T08:50:08.073Z,15.25
2022-12-18T08:52:35.709Z,12.30
2022-12-18T08:55:03.375Z,18.17
2022-12-18T08:57:32.572Z,17.55
2022-12-18T09:00:00.356Z,24.00
2022-12-18T09:02:28.334Z,28.80
2022-12-18T09:04:57.748Z,15.82
2022-12-18T09:07:25.653Z,22.55
2022-12-18T09:09:53.339Z,25.65
2022-12-18T09:12:21.091Z,23.30
2022-12-18T09:14:50.154Z,27.63
2022-12-18T09:17:18.087Z,26.52
2022-12-18T09:19:45.867Z,20.02
2022-12-18T09:22:13.614Z,26.60
2022-12-18T09:24:41.285Z,37.60
2022-12-18T09:27:09.036Z,26.50
2022-12-18T09:29:36.772Z,22.55
2022-12-18T09:32:06.522Z,28.42
2022-12-18T09:34:34.639Z,29.15
2022-12-18T09:37:02.333Z,27.52
2022-12-18T09:39:30.143Z,26.77
2022-12-18T09:42:00.334Z,25.35
2022-12-18T09:44:31.928Z,26.23
2022-12-18T09:47:15.814Z,31.95
2022-12-18T09:49:45.506Z,29.70
2022-12-18T09:52:19.827Z,27.50
2022-12-18T09:54:54.059Z,33.22
2022-12-18T09:57:25.473Z,25.33
2022-12-18T09:59:57.139Z,28.83
2022-12-18T10:02:28.585Z,26.25
2022-12-18T10:05:07.051Z,28.15
2022-12-18T10:07:48.618Z,16.42
2022-12-18T10:10:28.313Z,10.88
2022-12-18T10:13:05.132Z,23.42
2022-12-18T10:15:41.447Z,24.83
2022-12-18T10:18:25.288Z,7.22
2022-12-18T10:20:58.137Z,17.90
2022-12-18T10:23:35.030Z,17.00
2022-12-18T10:26:06.225Z,19.92
2022-12-18T10:28:37.806Z,19.50
2022-12-18T10:31:07.588Z,18.67
2022-12-18T10:33:36.698Z,22.17
2022-12-18T10:36:05.001Z,25.50
2022-12-18T10:38:34.161Z,27.65
2022-12-18T10:41:05.944Z,26.85
2022-12-18T10:43:36.752Z,20.98
2022-12-18T10:46:21.944Z,19.60
2022-12-18T10:48:55.472Z,34.28
2022-12-18T10:51:26.984Z,14.07
2022-12-18T10:53:58.256Z,26.48
2022-12-18T10:56:28.009Z,25.55
2022-12-18T10:59:02.015Z,28.85
2022-12-18T11:01:34.105Z,28.23
2022-12-18T11:04:10.670Z,26.52
2022-12-18T11:06:55.852Z,42.30
2022-12-18T11:09:25.255Z,25.60
2022-12-18T11:11:54.869Z,33.00
2022-12-18T11:14:25.851Z,24.58
2022-12-18T11:17:26.259Z,34.00
2022-12-18T11:19:45.028Z,35.55
2022-12-18T11:22:22.661Z,27.10
2022-12-18T11:25:30.159Z,25.30
2022-12-18T11:27:50.409Z,28.48
2022-12-18T11:30:24.430Z,20.48
2022-12-18T11:32:55.219Z,33.78
2022-12-18T11:35:35.670Z,29.63
2022-12-18T11:38:12.062Z,26.10
2022-12-18T11:40:42.988Z,35.88
2022-12-18T11:43:15.204Z,28.42
2022-12-18T11:45:50.677Z,26.52
2022-12-18T11:48:23.304Z,30.45
2022-12-18T11:50:54.393Z,30.17
2022-12-18T11:53:22.511Z,30.70
2022-12-18T11:56:02.115Z,37.88
2022-12-18T11:58:49.031Z,32.20
2022-12-18T12:01:44.038Z,33.20
2022-12-18T12:04:49.399Z,39.83
2022-12-18T12:07:33.987Z,22.58
2022-12-18T12:10:14.333Z,34.65
2022-12-18T12:13:02.160Z,34.00
2022-12-18T12:15:41.515Z,43.63
2022-12-18T12:18:23.323Z,35.10
2022-12-18T12:21:00.408Z,42.25
2022-12-18T12:23:40.419Z,33.47
2022-12-18T12:26:11.918Z,36.83
2022-12-18T12:29:01.715Z,29.35
2022-12-18T12:31:44.070Z,25.92
2022-12-18T12:34:19.899Z,24.40
2022-12-18T12:37:00.687Z,35.00
2022-12-18T12:39:35.120Z,23.52
2022-12-18T12:42:21.853Z,42.67
2022-12-18T12:44:56.531Z,38.40
2022-12-18T12:47:37.700Z,28.02
2022-12-18T12:50:13.970Z,34.30
2022-12-18T12:52:45.443Z,33.90
2022-12-18T12:55:19.855Z,34.63
2022-12-18T12:57:58.098Z,37.08
2022-12-18T13:00:30.349Z,40.83
2022-12-18T13:03:04.986Z,42.35
2022-12-18T13:05:41.511Z,42.53
2022-12-18T13:08:11.354Z,41.33
2022-12-18T13:10:42.867Z,46.47
2022-12-18T13:13:13.314Z,50.08
2022-12-18T13:15:44.150Z,45.33
2022-12-18T13:18:23.507Z,47.65
2022-12-18T13:21:03.806Z,48.83
2022-12-18T13:23:35.197Z,45.33
2022-12-18T13:26:35.504Z,54.92
2022-12-18T13:29:07.194Z,37.83
2022-12-18T13:32:01.208Z,48.60
2022-12-18T13:34:32.091Z,48.03
2022-12-18T13:37:34.004Z,42.60
2022-12-18T13:40:02.121Z,50.17
2022-12-18T13:43:01.312Z,36.25
2022-12-18T13:45:47.567Z,52.50
2022-12-18T13:48:21.450Z,44.92
2022-12-18T13:50:57.122Z,47.60
2022-12-18T13:53:29.090Z,48.05
2022-12-18T13:55:57.253Z,49.90
2022-12-18T13:58:26.301Z,48.58
2022-12-18T14:00:54.196Z,50.42
2022-12-18T14:03:27.025Z,37.22
2022-12-18T14:06:02.341Z,45.33
2022-12-18T14:08:36.235Z,40.70
2022-12-18T14:11:07.880Z,39.60
2022-12-18T14:13:41.185Z,40.47
2022-12-18T14:16:10.104Z,41.58
2022-12-18T14:18:45.949Z,31.65
2022-12-18T14:21:23.661Z,35.20
2022-12-18T14:24:04.491Z,27.65
2022-12-18T14:26:34.204Z,35.60
2022-12-18T14:29:19.829Z,25.00
2022-12-18T14:32:10.580Z,36.72
2022-12-18T14:34:42.948Z,30.10
2022-12-18T14:37:12.468Z,32.10
2022-12-18T14:39:40.282Z,37.28
2022-12-18T14:42:12.164Z,32.67
2022-12-18T14:47:35.051Z,25.58
2022-12-18T14:50:02.992Z,33.17
2022-12-18T14:52:33.863Z,22.80
2022-12-18T14:55:01.591Z,36.72
2022-12-18T14:57:38.785Z,32.50
2022-12-18T15:00:17.116Z,38.08
2022-12-18T15:02:45.519Z,26.30
2022-12-18T15:05:20.828Z,38.33
2022-12-18T15:07:50.311Z,35.10
2022-12-18T15:10:21.070Z,33.97
2022-12-18T15:12:50.484Z,22.48
2022-12-18T15:15:57.192Z,35.38
2022-12-18T15:18:32.115Z,37.88
2022-12-18T15:21:02.190Z,22.30
2022-12-18T15:23:35.838Z,33.28
2022-12-18T15:26:07.218Z,26.30
2022-12-18T15:28:40.502Z,30.35
2022-12-18T15:31:24.691Z,32.97
2022-12-18T15:34:14.458Z,41.20
2022-12-18T15:36:42.520Z,32.22
2022-12-18T15:39:13.470Z,22.90
2022-12-18T15:41:41.527Z,32.28
2022-12-18T15:44:23.935Z,34.80
2022-12-18T15:46:53.017Z,26.55
2022-12-18T15:49:20.804Z,22.90
2022-12-18T15:51:53.307Z,31.38
2022-12-18T15:54:42.497Z,33.72
2022-12-18T15:57:29.090Z,24.60
2022-12-18T15:59:59.078Z,38.13
2022-12-18T16:02:29.609Z,36.50
2022-12-18T16:04:59.252Z,44.22
2022-12-18T16:07:30.321Z,33.17
2022-12-18T16:09:58.801Z,32.13
2022-12-18T16:12:28.191Z,31.33
2022-12-18T16:14:55.964Z,30.88
2022-12-18T16:17:23.742Z,40.65
2022-12-18T16:19:52.884Z,36.00
2022-12-18T16:22:23.447Z,38.00
2022-12-18T16:24:52.303Z,36.50
2022-12-18T16:27:20.778Z,21.77
2022-12-18T16:29:48.945Z,25.10
2022-12-18T16:32:19.228Z,28.67
2022-12-18T16:34:47.775Z,36.38
2022-12-18T16:37:18.107Z,17.30
2022-12-18T16:39:46.250Z,23.67
2022-12-18T16:42:17.780Z,37.38
2022-12-18T16:44:46.715Z,22.85
2022-12-18T16:47:15.590Z,21.75
2022-12-18T16:49:45.295Z,29.42
2022-12-18T16:52:15.966Z,20.02
2022-12-18T16:54:45.524Z,20.77
2022-12-18T16:57:15.760Z,22.33
2022-12-18T16:59:43.553Z,25.65
2022-12-18T17:02:15.540Z,25.95
2022-12-18T17:04:45.362Z,22.67
2022-12-18T17:07:13.250Z,37.17
2022-12-18T17:09:43.046Z,18.20
2022-12-18T17:12:11.350Z,11.85
2022-12-18T17:14:39.208Z,18.20
2022-12-18T17:17:20.853Z,24.15
2022-12-18T17:19:49.000Z,20.08
2022-12-18T17:22:16.722Z,22.58
2022-12-18T17:24:45.862Z,13.43
2022-12-18T17:27:13.630Z,17.48
2022-12-18T17:29:47.368Z,11.95
2022-12-18T17:34:43.525Z,26.10
2022-12-18T17:37:11.291Z,15.95
2022-12-18T17:39:39.467Z,24.83
2022-12-18T17:42:10.668Z,29.88
2022-12-18T17:44:43.099Z,21.33
2022-12-18T17:47:12.070Z,31.00
2022-12-18T17:49:39.986Z,34.33
2022-12-18T17:52:08.072Z,32.00
2022-12-18T17:54:39.383Z,33.25
2022-12-18T17:57:09.034Z,27.75
2022-12-18T17:59:36.784Z,21.52
2022-12-18T18:02:04.691Z,25.25
2022-12-18T18:04:32.527Z,37.92
2022-12-18T18:07:00.322Z,27.55
2022-12-18T18:09:28.537Z,25.48
2022-12-18T18:12:14.783Z,13.85
2022-12-18T18:14:43.991Z,28.95
2022-12-18T18:17:11.967Z,24.45
2022-12-18T18:19:39.955Z,17.00
2022-12-18T18:22:08.251Z,10.30
2022-12-18T18:24:36.039Z,20.80
2022-12-18T18:27:03.899Z,18.90
2022-12-18T18:29:31.735Z,29.05
2022-12-18T18:32:01.044Z,27.95
2022-12-18T18:34:31.601Z,25.10
2022-12-18T18:37:01.198Z,26.50
2022-12-18T18:39:29.153Z,17.35
2022-12-18T18:41:57.047Z,23.42
2022-12-18T18:44:25.919Z,13.43
2022-12-18T18:46:55.071Z,24.70
2022-12-18T18:49:27.567Z,28.27
2022-12-18T18:51:56.883Z,18.10
2022-12-18T18:54:24.616Z,14.73
2022-12-18T18:59:40.605Z,18.25
2022-12-18T19:02:12.506Z,29.30
2022-12-18T19:04:46.199Z,24.15
2022-12-18T19:07:18.180Z,22.23
2022-12-18T19:10:01.522Z,16.33
2022-12-18T19:12:50.998Z,21.55
2022-12-18T19:15:18.871Z,19.55
2022-12-18T19:17:47.404Z,21.58
2022-12-18T19:20:17.156Z,27.35
2022-12-18T19:22:46.101Z,28.67
2022-12-18T19:25:28.153Z,22.70
2022-12-18T19:28:08.274Z,34.42
2022-12-18T19:30:47.028Z,32.70
2022-12-18T19:33:34.326Z,31.75
2022-12-18T19:36:10.987Z,27.88
2022-12-18T19:38:39.177Z,28.27
2022-12-18T19:41:10.924Z,24.30
2022-12-18T19:43:39.603Z,31.23
2022-12-18T19:46:08.855Z,27.13
2022-12-18T19:48:37.202Z,29.00
2022-12-18T19:51:12.317Z,22.63
2022-12-18T19:53:40.234Z,37.05
2022-12-18T19:56:09.839Z,30.85
2022-12-18T19:58:39.286Z,24.35
2022-12-18T20:01:07.778Z,33.10
2022-12-18T20:03:37.221Z,31.00
2022-12-18T20:06:14.934Z,27.83
2022-12-18T20:08:42.794Z,33.38
2022-12-18T20:11:10.548Z,25.15
2022-12-18T20:13:38.649Z,25.60
2022-12-18T20:16:06.869Z,28.20
2022-12-18T20:18:34.675Z,38.58
2022-12-18T20:21:02.631Z,30.13
2022-12-18T20:23:32.836Z,21.73
2022-12-18T20:26:02.168Z,28.08
2022-12-18T20:28:30.341Z,21.90
2022-12-18T20:31:02.536Z,32.55
2022-12-18T20:33:30.709Z,25.35
2022-12-18T20:36:02.441Z,25.67
2022-12-18T20:38:32.140Z,31.30
2022-12-18T20:41:02.394Z,25.45
2022-12-18T20:43:30.551Z,19.83
2022-12-18T20:46:03.098Z,18.63
2022-12-18T20:48:31.663Z,22.10
2022-12-18T20:51:00.199Z,24.15
2022-12-18T20:53:31.968Z,27.70
2022-12-18T20:55:59.796Z,23.75
2022-12-18T20:58:27.691Z,27.02
2022-12-18T21:01:04.178Z,22.20
2022-12-18T21:03:32.027Z,28.95
2022-12-18T21:05:59.808Z,25.27
2022-12-18T21:08:27.560Z,20.20
2022-12-18T21:10:57.129Z,18.60
2022-12-18T21:13:24.012Z,24.05
2022-12-18T21:15:54.202Z,24.50
2022-12-18T21:18:21.861Z,15.60
2022-12-18T21:20:49.709Z,19.60
2022-12-18T21:23:17.624Z,18.90
2022-12-18T21:25:45.767Z,18.08
2022-12-18T21:28:16.044Z,16.40
2022-12-18T21:30:44.074Z,22.38
2022-12-18T21:33:11.951Z,14.90
2022-12-18T21:35:39.696Z,23.23
2022-12-18T21:38:07.485Z,22.23
2022-12-18T21:40:35.477Z,26.90
2022-12-18T21:43:22.305Z,17.50
2022-12-18T21:45:51.473Z,29.60
2022-12-18T21:48:19.383Z,22.20
2022-12-18T21:50:47.029Z,24.40
2022-12-18T21:53:14.953Z,25.00
2022-12-18T21:55:42.827Z,21.85
2022-12-18T21:58:10.612Z,21.98
2022-12-18T22:00:38.340Z,15.38
2022-12-18T22:03:18.753Z,17.10
2022-12-18T22:05:46.982Z,20.42
2022-12-18T22:08:18.328Z,15.52
2022-12-18T22:10:46.354Z,19.70
2022-12-18T22:13:14.105Z,22.17
2022-12-18T22:15:41.878Z,21.02
2022-12-18T22:18:12.128Z,11.85
2022-12-18T22:20:39.888Z,19.48
2022-12-18T22:23:07.750Z,24.85
2022-12-18T22:25:35.996Z,24.90
2022-12-18T22:28:25.263Z,22.95
2022-12-18T22:30:55.990Z,19.17
2022-12-18T22:35:56.574Z,22.77
2022-12-18T22:38:24.310Z,19.48
2022-12-18T22:40:52.023Z,25.08
2022-12-18T22:43:21.687Z,25.35
2022-12-18T22:45:49.523Z,21.85
2022-12-18T22:48:17.381Z,23.02
2022-12-18T22:50:46.447Z,20.35
2022-12-18T22:53:14.210Z,14.18
2022-12-18T22:55:41.911Z,20.10
2022-12-18T22:58:09.600Z,26.17
2022-12-18T23:00:37.339Z,26.02
2022-12-18T23:03:07.165Z,14.57
2022-12-18T23:05:35.359Z,17.50
2022-12-18T23:08:04.593Z,19.90
2022-12-18T23:10:32.334Z,21.67
2022-12-18T23:12:59.967Z,26.42
2022-12-18T23:15:28.637Z,18.35
2022-12-18T23:17:58.564Z,19.38
2022-12-18T23:20:27.030Z,18.60
2022-12-18T23:22:54.796Z,21.27
2022-12-18T23:25:24.271Z,18.00
2022-12-18T23:27:52.086Z,20.55
2022-12-18T23:30:20.131Z,20.98
2022-12-18T23:32:48.189Z,17.17
2022-12-18T23:35:16.163Z,22.63
2022-12-18T23:38:00.124Z,16.23
2022-12-18T23:40:30.353Z,20.60
2022-12-18T23:42:58.149Z,16.35
2022-12-18T23:45:25.859Z,16.45
2022-12-18T23:47:53.579Z,13.80
2022-12-18T23:50:22.782Z,16.35
2022-12-18T23:53:04.615Z,14.70
2022-12-18T23:55:35.391Z,15.25
2022-12-18T23:58:03.138Z,15.43
